createdAt,value
2017-12-26T00:00:11.628Z,20.69
2017-12-26T00:00:41.215Z,20.73
2017-12-26T00:01:38.278Z,20.74
2017-12-26T00:02:07.925Z,20.7
2017-12-26T00:02:37.273Z,20.64
2017-12-26T00:03:06.077Z,20.62
2017-12-26T00:03:35.497Z,20.64
2017-12-26T00:04:29.813Z,20.7
2017-12-26T00:04:58.051Z,20.67
2017-12-26T00:05:27.550Z,20.73
2017-12-26T00:05:55.921Z,20.69
2017-12-26T00:06:26.638Z,20.64
2017-12-26T00:06:56.788Z,20.67
2017-12-26T00:07:25.125Z,20.69
2017-12-26T00:08:22.752Z,20.74
2017-12-26T00:09:34.197Z,20.73
2017-12-26T00:10:02.860Z,20.76
2017-12-26T00:10:46.973Z,20.74
2017-12-26T00:12:15.099Z,20.67
2017-12-26T00:12:45.043Z,20.64
2017-12-26T00:13:28.008Z,20.69
2017-12-26T00:13:56.436Z,20.62
2017-12-26T00:14:40.648Z,20.73
2017-12-26T00:16:35.212Z,20.69
2017-12-26T00:17:34.273Z,20.74
2017-12-26T00:18:47.886Z,20.61
2017-12-26T00:19:16.283Z,20.58
2017-12-26T00:19:59.053Z,20.55
2017-12-26T00:20:28.313Z,20.66
2017-12-26T00:20:56.876Z,20.58
2017-12-26T00:21:25.452Z,20.58
2017-12-26T00:21:59.522Z,20.57
2017-12-26T00:22:27.552Z,20.55
2017-12-26T00:22:56.575Z,20.61
2017-12-26T00:23:24.583Z,20.57
2017-12-26T00:23:53.597Z,20.67
2017-12-26T00:24:22.425Z,20.76
2017-12-26T00:25:05.586Z,20.7
2017-12-26T00:25:33.603Z,20.62
2017-12-26T00:26:30.613Z,20.73
2017-12-26T00:26:59.404Z,20.69
2017-12-26T00:27:30.197Z,20.7
2017-12-26T00:28:42.894Z,20.61
2017-12-26T00:29:11.376Z,20.73
2017-12-26T00:29:41.005Z,20.62
2017-12-26T00:30:10.233Z,20.57
2017-12-26T00:30:44.493Z,20.54
2017-12-26T00:32:41.005Z,20.58
2017-12-26T00:33:23.956Z,20.59
2017-12-26T00:33:52.676Z,20.67
2017-12-26T00:34:20.875Z,20.55
2017-12-26T00:34:49.320Z,20.69
2017-12-26T00:36:29.170Z,20.67
2017-12-26T00:37:12.660Z,20.51
2017-12-26T00:37:55.979Z,20.58
2017-12-26T00:38:24.390Z,20.55
2017-12-26T00:40:05.208Z,20.55
2017-12-26T00:41:17.905Z,20.52
2017-12-26T00:41:46.918Z,20.55
2017-12-26T00:42:14.868Z,20.54
2017-12-26T00:42:43.460Z,20.57
2017-12-26T00:43:12.328Z,20.52
2017-12-26T00:43:56.024Z,20.52
2017-12-26T00:44:24.585Z,20.57
2017-12-26T00:44:53.057Z,20.52
2017-12-26T00:45:22.961Z,20.55
2017-12-26T00:45:51.755Z,20.59
2017-12-26T00:46:19.801Z,20.55
2017-12-26T00:46:49.404Z,20.58
2017-12-26T00:47:17.539Z,20.54
2017-12-26T00:47:46.899Z,20.57
2017-12-26T00:48:43.891Z,20.57
2017-12-26T00:49:14.981Z,20.55
2017-12-26T00:51:09.688Z,20.58
2017-12-26T00:52:07.538Z,20.57
2017-12-26T00:52:38.200Z,20.57
2017-12-26T00:53:36.710Z,20.61
2017-12-26T00:54:20.597Z,20.54
2017-12-26T00:54:49.355Z,20.61
2017-12-26T00:56:30.416Z,20.57
2017-12-26T00:56:59.600Z,20.52
2017-12-26T00:57:27.620Z,20.58
2017-12-26T00:57:55.817Z,20.64
2017-12-26T00:58:24.188Z,20.69
2017-12-26T00:59:21.478Z,20.52
2017-12-26T01:00:05.728Z,20.58
2017-12-26T01:01:30.743Z,20.59
2017-12-26T01:01:59.330Z,20.54
2017-12-26T01:03:00.063Z,20.57
2017-12-26T01:03:29.714Z,20.57
2017-12-26T01:03:58.142Z,20.66
2017-12-26T01:04:41.109Z,20.59
2017-12-26T01:05:10.380Z,20.7
2017-12-26T01:05:38.810Z,20.61
2017-12-26T01:06:07.795Z,20.67
2017-12-26T01:06:36.651Z,20.69
2017-12-26T01:07:04.567Z,20.72
2017-12-26T01:07:33.157Z,20.66
2017-12-26T01:08:02.173Z,20.52
2017-12-26T01:09:13.968Z,20.47
2017-12-26T01:09:56.943Z,20.39
2017-12-26T01:10:24.999Z,20.39
2017-12-26T01:10:54.267Z,20.52
2017-12-26T01:11:23.633Z,20.48
2017-12-26T01:11:52.469Z,20.47
2017-12-26T01:12:22.780Z,20.32
2017-12-26T01:12:51.740Z,20.36
2017-12-26T01:13:19.934Z,20.32
2017-12-26T01:14:45.836Z,20.24
2017-12-26T01:15:43.440Z,20.26
2017-12-26T01:16:11.681Z,20.28
2017-12-26T01:17:37.611Z,20.16
2017-12-26T01:18:06.277Z,20.21
2017-12-26T01:18:34.764Z,20.17
2017-12-26T01:20:17.107Z,20.14
2017-12-26T01:20:45.534Z,20.16
2017-12-26T01:21:13.988Z,20.21
2017-12-26T01:21:57.787Z,20.16
2017-12-26T01:22:26.153Z,20.11
2017-12-26T01:23:09.472Z,20.14
2017-12-26T01:23:52.525Z,20.18
2017-12-26T01:24:20.452Z,20.17
2017-12-26T01:24:49.118Z,20.18
2017-12-26T01:25:32.994Z,20.21
2017-12-26T01:26:02.155Z,20.28
2017-12-26T01:26:31.193Z,20.17
2017-12-26T01:28:14.241Z,20.16
2017-12-26T01:28:42.673Z,20.14
2017-12-26T01:29:10.683Z,20.16
2017-12-26T01:29:39.110Z,20.16
2017-12-26T01:30:13.673Z,20.16
2017-12-26T01:30:43.458Z,20.23
2017-12-26T01:31:24.946Z,20.06
2017-12-26T01:31:53.707Z,20.06
2017-12-26T01:32:50.673Z,20.06
2017-12-26T01:33:34.426Z,20.1
2017-12-26T01:34:17.546Z,20.13
2017-12-26T01:34:45.588Z,20.05
2017-12-26T01:35:14.452Z,20.16
2017-12-26T01:35:48.750Z,20.06
2017-12-26T01:36:18.780Z,20.06
2017-12-26T01:36:53.045Z,20.11
2017-12-26T01:37:21.475Z,20.2
2017-12-26T01:39:16.805Z,20.2
2017-12-26T01:39:44.829Z,20.17
2017-12-26T01:40:42.491Z,20.17
2017-12-26T01:41:10.903Z,20.14
2017-12-26T01:41:39.351Z,20.24
2017-12-26T01:42:08.502Z,20.02
2017-12-26T01:42:37.311Z,20.18
2017-12-26T01:43:05.329Z,20.08
2017-12-26T01:43:38.477Z,20.05
2017-12-26T01:44:06.478Z,20.01
2017-12-26T01:44:49.940Z,20.14
2017-12-26T01:45:33.624Z,20.08
2017-12-26T01:46:02.020Z,20.08
2017-12-26T01:46:30.991Z,20.02
2017-12-26T01:46:59.840Z,20.08
2017-12-26T01:48:27.914Z,20.06
2017-12-26T01:48:57.382Z,20.1
2017-12-26T01:49:25.822Z,20.05
2017-12-26T01:49:54.515Z,20.13
2017-12-26T01:50:22.961Z,20.05
2017-12-26T01:50:51.610Z,20.1
2017-12-26T01:51:49.096Z,20.06
2017-12-26T01:52:17.968Z,19.92
2017-12-26T01:54:13.424Z,19.98
2017-12-26T01:54:56.513Z,20.06
2017-12-26T01:55:24.520Z,19.91
2017-12-26T01:56:52.407Z,20.03
2017-12-26T01:57:41.619Z,20.08
2017-12-26T01:58:09.550Z,20.03
2017-12-26T01:59:50.384Z,20.06
2017-12-26T02:00:18.414Z,20.01
2017-12-26T02:01:46.397Z,19.96
2017-12-26T02:02:14.735Z,20.02
2017-12-26T02:02:42.961Z,20.1
2017-12-26T02:03:54.154Z,19.94
2017-12-26T02:04:35.336Z,19.96
2017-12-26T02:05:18.604Z,20.03
2017-12-26T02:06:44.904Z,20.05
2017-12-26T02:07:13.164Z,20.03
2017-12-26T02:07:41.216Z,20.1
2017-12-26T02:09:40.109Z,20.06
2017-12-26T02:11:05.338Z,20.05
2017-12-26T02:11:34.143Z,20.08
2017-12-26T02:12:02.159Z,20.14
2017-12-26T02:12:30.430Z,20.16
2017-12-26T02:13:01.217Z,20.13
2017-12-26T02:13:29.673Z,20.08
2017-12-26T02:13:58.046Z,20.13
2017-12-26T02:14:26.574Z,20.2
2017-12-26T02:14:54.590Z,20.23
2017-12-26T02:15:38.582Z,20.13
2017-12-26T02:16:21.371Z,20.14
2017-12-26T02:16:49.411Z,20.14
2017-12-26T02:17:18.452Z,20.06
2017-12-26T02:17:48.465Z,20.1
2017-12-26T02:18:16.899Z,20.14
2017-12-26T02:18:46.195Z,20.14
2017-12-26T02:19:15.750Z,20.11
2017-12-26T02:19:43.692Z,20.1
2017-12-26T02:20:11.722Z,20.08
2017-12-26T02:21:38.098Z,20.1
2017-12-26T02:22:06.112Z,20.1
2017-12-26T02:22:35.054Z,20.14
2017-12-26T02:23:03.399Z,20.13
2017-12-26T02:23:31.408Z,20.17
2017-12-26T02:24:43.646Z,20.02
2017-12-26T02:25:11.551Z,20.14
2017-12-26T02:25:39.562Z,20.13
2017-12-26T02:26:08.006Z,20.1
2017-12-26T02:26:37.235Z,20.05
2017-12-26T02:27:06.466Z,20.18
2017-12-26T02:27:34.984Z,20.05
2017-12-26T02:28:03.754Z,20.11
2017-12-26T02:28:31.767Z,20.17
2017-12-26T02:29:00.214Z,20.03
2017-12-26T02:29:28.749Z,20.02
2017-12-26T02:29:57.567Z,20.13
2017-12-26T02:30:25.640Z,20.18
2017-12-26T02:31:08.716Z,20.11
2017-12-26T02:31:36.766Z,20.11
2017-12-26T02:32:04.769Z,20.06
2017-12-26T02:32:32.787Z,20.14
2017-12-26T02:33:01.383Z,20.05
2017-12-26T02:33:29.792Z,20.08
2017-12-26T02:33:58.744Z,20.16
2017-12-26T02:34:28.326Z,20.05
2017-12-26T02:34:56.961Z,20.06
2017-12-26T02:35:25.476Z,20.06
2017-12-26T02:35:54.242Z,20.17
2017-12-26T02:36:23.216Z,20.2
2017-12-26T02:36:51.129Z,20.21
2017-12-26T02:37:19.968Z,20.14
2017-12-26T02:37:49.059Z,20.16
2017-12-26T02:38:17.862Z,20.29
2017-12-26T02:38:46.405Z,20.21
2017-12-26T02:39:14.747Z,20.17
2017-12-26T02:39:43.264Z,20.24
2017-12-26T02:40:55.719Z,20.16
2017-12-26T02:42:22.461Z,20.16
2017-12-26T02:42:50.471Z,20.13
2017-12-26T02:43:23.949Z,20.17
2017-12-26T02:43:52.888Z,20.21
2017-12-26T02:44:21.633Z,20.28
2017-12-26T02:46:10.757Z,20.17
2017-12-26T02:46:38.799Z,20.13
2017-12-26T02:47:08.153Z,20.2
2017-12-26T02:47:37.442Z,20.16
2017-12-26T02:48:05.688Z,20.24
2017-12-26T02:48:34.858Z,20.21
2017-12-26T02:49:03.294Z,20.29
2017-12-26T02:49:31.782Z,20.23
2017-12-26T02:50:00.217Z,20.24
2017-12-26T02:51:26.111Z,20.33
2017-12-26T02:51:54.117Z,20.35
2017-12-26T02:52:51.199Z,20.26
2017-12-26T02:53:21.996Z,20.21
2017-12-26T02:53:50.705Z,20.29
2017-12-26T02:54:19.128Z,20.29
2017-12-26T02:54:47.174Z,20.23
2017-12-26T02:55:15.216Z,20.29
2017-12-26T02:55:44.294Z,20.28
2017-12-26T02:56:28.043Z,20.26
2017-12-26T02:57:02.540Z,20.28
2017-12-26T02:57:30.994Z,20.28
2017-12-26T02:57:59.453Z,20.17
2017-12-26T02:58:27.487Z,20.23
2017-12-26T02:58:55.488Z,20.24
2017-12-26T02:59:23.921Z,20.26
2017-12-26T02:59:52.052Z,20.28
2017-12-26T03:00:20.595Z,20.32
2017-12-26T03:01:19.800Z,20.32
2017-12-26T03:01:49.428Z,20.33
2017-12-26T03:02:17.476Z,20.33
2017-12-26T03:02:46.424Z,20.35
2017-12-26T03:03:29.991Z,20.29
2017-12-26T03:03:58.020Z,20.26
2017-12-26T03:04:26.035Z,20.33
2017-12-26T03:04:54.062Z,20.32
2017-12-26T03:05:22.898Z,20.28
2017-12-26T03:05:50.920Z,20.26
2017-12-26T03:06:19.390Z,20.2
2017-12-26T03:06:48.328Z,20.31
2017-12-26T03:07:16.248Z,20.32
2017-12-26T03:07:44.780Z,20.36
2017-12-26T03:08:12.733Z,20.28
2017-12-26T03:08:41.982Z,20.26
2017-12-26T03:09:10.417Z,20.29
2017-12-26T03:09:38.824Z,20.31
2017-12-26T03:10:08.608Z,20.28
2017-12-26T03:11:33.603Z,20.26
2017-12-26T03:12:01.756Z,20.28
2017-12-26T03:12:30.167Z,20.23
2017-12-26T03:12:58.175Z,20.14
2017-12-26T03:13:26.624Z,20.2
2017-12-26T03:13:54.646Z,20.21
2017-12-26T03:14:38.476Z,20.29
2017-12-26T03:15:06.936Z,20.36
2017-12-26T03:15:34.960Z,20.36
2017-12-26T03:16:02.964Z,20.26
2017-12-26T03:16:31.444Z,20.23
2017-12-26T03:17:00.109Z,20.26
2017-12-26T03:17:28.120Z,20.21
2017-12-26T03:17:56.129Z,20.24
2017-12-26T03:18:24.123Z,20.28
2017-12-26T03:18:52.576Z,20.32
2017-12-26T03:19:22.745Z,20.23
2017-12-26T03:19:51.123Z,20.36
2017-12-26T03:20:19.138Z,20.32
2017-12-26T03:21:46.686Z,20.23
2017-12-26T03:22:15.130Z,20.21
2017-12-26T03:22:58.455Z,20.2
2017-12-26T03:24:13.262Z,20.24
2017-12-26T03:24:42.104Z,20.18
2017-12-26T03:25:10.007Z,20.17
2017-12-26T03:25:38.437Z,20.24
2017-12-26T03:26:07.009Z,20.2
2017-12-26T03:26:35.879Z,20.13
2017-12-26T03:27:18.630Z,20.17
2017-12-26T03:27:48.384Z,20.31
2017-12-26T03:28:16.306Z,20.32
2017-12-26T03:28:44.343Z,20.31
2017-12-26T03:29:14.480Z,20.28
2017-12-26T03:30:12.897Z,20.31
2017-12-26T03:30:41.237Z,20.32
2017-12-26T03:31:11.227Z,20.23
2017-12-26T03:32:05.534Z,20.33
2017-12-26T03:32:33.958Z,20.29
2017-12-26T03:33:01.966Z,20.33
2017-12-26T03:33:30.424Z,20.26
2017-12-26T03:34:14.965Z,20.33
2017-12-26T03:34:42.886Z,20.33
2017-12-26T03:35:17.284Z,20.31
2017-12-26T03:35:45.946Z,20.33
2017-12-26T03:36:15.373Z,20.38
2017-12-26T03:36:44.037Z,20.36
2017-12-26T03:37:13.071Z,20.28
2017-12-26T03:37:41.511Z,20.33
2017-12-26T03:38:10.714Z,20.38
2017-12-26T03:38:53.231Z,20.31
2017-12-26T03:39:21.675Z,20.38
2017-12-26T03:39:49.690Z,20.31
2017-12-26T03:40:25.089Z,20.31
2017-12-26T03:40:54.932Z,20.43
2017-12-26T03:41:24.014Z,20.43
2017-12-26T03:42:08.661Z,20.36
2017-12-26T03:42:37.354Z,20.48
2017-12-26T03:43:05.890Z,20.48
2017-12-26T03:43:35.194Z,20.5
2017-12-26T03:44:32.177Z,20.5
2017-12-26T03:45:01.899Z,20.35
2017-12-26T03:45:30.284Z,20.39
2017-12-26T03:45:59.047Z,20.42
2017-12-26T03:46:27.516Z,20.35
2017-12-26T03:46:55.536Z,20.5
2017-12-26T03:47:23.980Z,20.47
2017-12-26T03:47:52.758Z,20.51
2017-12-26T03:48:22.010Z,20.55
2017-12-26T03:48:50.426Z,20.51
2017-12-26T03:49:19.218Z,20.5
2017-12-26T03:49:47.673Z,20.48
2017-12-26T03:50:16.097Z,20.48
2017-12-26T03:51:27.875Z,20.42
2017-12-26T03:51:56.400Z,20.52
2017-12-26T03:53:37.241Z,20.43
2017-12-26T03:54:06.005Z,20.52
2017-12-26T03:54:34.856Z,20.48
2017-12-26T03:55:18.204Z,20.5
2017-12-26T03:55:46.221Z,20.48
2017-12-26T03:56:14.673Z,20.43
2017-12-26T03:56:43.860Z,20.48
2017-12-26T03:57:12.791Z,20.5
2017-12-26T03:57:41.222Z,20.55
2017-12-26T03:58:09.967Z,20.5
2017-12-26T03:58:37.980Z,20.52
2017-12-26T03:59:06.009Z,20.51
2017-12-26T03:59:35.336Z,20.55
2017-12-26T04:00:04.215Z,20.43
2017-12-26T04:00:32.764Z,20.51
2017-12-26T04:01:01.235Z,20.47
2017-12-26T04:01:32.261Z,20.52
2017-12-26T04:03:13.402Z,20.47
2017-12-26T04:03:44.180Z,20.41
2017-12-26T04:04:12.607Z,20.36
2017-12-26T04:04:40.834Z,20.42
2017-12-26T04:05:08.837Z,20.42
2017-12-26T04:05:53.457Z,20.5
2017-12-26T04:06:22.052Z,20.42
2017-12-26T04:08:02.104Z,20.41
2017-12-26T04:08:30.668Z,20.48
2017-12-26T04:09:56.966Z,20.43
2017-12-26T04:10:54.822Z,20.43
2017-12-26T04:11:23.672Z,20.43
2017-12-26T04:11:52.100Z,20.47
2017-12-26T04:12:34.648Z,20.39
2017-12-26T04:13:02.658Z,20.41
2017-12-26T04:13:30.664Z,20.43
2017-12-26T04:14:42.835Z,20.41
2017-12-26T04:15:11.361Z,20.5
2017-12-26T04:15:39.381Z,20.48
2017-12-26T04:16:07.807Z,20.51
2017-12-26T04:17:06.181Z,20.52
2017-12-26T04:17:34.517Z,20.58
2017-12-26T04:18:03.452Z,20.58
2017-12-26T04:18:31.698Z,20.54
2017-12-26T04:19:01.267Z,20.57
2017-12-26T04:19:44.600Z,20.55
2017-12-26T04:20:44.558Z,20.57
2017-12-26T04:22:40.726Z,20.57
2017-12-26T04:23:09.434Z,20.58
2017-12-26T04:23:37.455Z,20.55
2017-12-26T04:24:06.767Z,20.64
2017-12-26T04:25:48.041Z,20.66
2017-12-26T04:26:30.556Z,20.55
2017-12-26T04:26:58.580Z,20.54
2017-12-26T04:27:27.345Z,20.62
2017-12-26T04:27:56.596Z,20.64
2017-12-26T04:28:24.622Z,20.66
2017-12-26T04:28:53.843Z,20.67
2017-12-26T04:29:22.662Z,20.69
2017-12-26T04:30:07.003Z,20.67
2017-12-26T04:30:35.762Z,20.69
2017-12-26T04:31:03.774Z,20.64
2017-12-26T04:33:12.873Z,20.7
2017-12-26T04:33:41.698Z,20.64
2017-12-26T04:34:09.917Z,20.61
2017-12-26T04:34:49.556Z,20.72
2017-12-26T04:35:17.622Z,20.72
2017-12-26T04:35:47.716Z,20.64
2017-12-26T04:36:31.459Z,20.64
2017-12-26T04:36:59.876Z,20.64
2017-12-26T04:37:29.095Z,20.67
2017-12-26T04:37:57.553Z,20.55
2017-12-26T04:38:26.800Z,20.64
2017-12-26T04:38:55.320Z,20.61
2017-12-26T04:39:23.809Z,20.58
2017-12-26T04:39:52.238Z,20.54
2017-12-26T04:40:21.628Z,20.35
2017-12-26T04:40:50.425Z,20.38
2017-12-26T04:41:19.406Z,20.33
2017-12-26T04:41:48.574Z,20.36
2017-12-26T04:42:47.128Z,20.33
2017-12-26T04:43:15.920Z,20.38
2017-12-26T04:43:44.525Z,20.29
2017-12-26T04:44:41.595Z,20.31
2017-12-26T04:46:08.628Z,20.2
2017-12-26T04:46:51.169Z,20.16
2017-12-26T04:47:19.187Z,20.21
2017-12-26T04:48:07.808Z,20.08
2017-12-26T04:48:52.183Z,20.18
2017-12-26T04:49:37.300Z,20.16
2017-12-26T04:50:05.820Z,20.23
2017-12-26T04:50:34.170Z,20.14
2017-12-26T04:51:03.126Z,20.21
2017-12-26T04:51:45.582Z,20.1
2017-12-26T04:52:43.191Z,20.24
2017-12-26T04:53:14.276Z,20.23
2017-12-26T04:53:42.708Z,20.21
2017-12-26T04:54:11.950Z,20.2
2017-12-26T04:55:10.588Z,20.14
2017-12-26T04:55:39.465Z,20.23
2017-12-26T04:56:23.346Z,20.26
2017-12-26T04:57:10.578Z,20.29
2017-12-26T04:57:39.889Z,20.24
2017-12-26T04:58:09.840Z,20.23
2017-12-26T04:58:53.210Z,20.21
2017-12-26T04:59:36.539Z,20.21
2017-12-26T05:00:13.371Z,20.23
2017-12-26T05:00:42.920Z,20.23
2017-12-26T05:01:11.242Z,20.26
2017-12-26T05:01:40.023Z,20.31
2017-12-26T05:02:23.391Z,20.14
2017-12-26T05:03:21.238Z,20.31
2017-12-26T05:05:02.634Z,20.26
2017-12-26T05:05:31.993Z,20.26
2017-12-26T05:07:00.320Z,20.2
2017-12-26T05:07:29.177Z,20.31
2017-12-26T05:08:11.953Z,20.23
2017-12-26T05:08:40.760Z,20.29
2017-12-26T05:09:09.199Z,20.32
2017-12-26T05:09:38.437Z,20.29
2017-12-26T05:10:06.457Z,20.33
2017-12-26T05:10:35.012Z,20.28
2017-12-26T05:11:03.024Z,20.21
2017-12-26T05:11:35.010Z,20.28
2017-12-26T05:12:18.765Z,20.31
2017-12-26T05:13:06.674Z,20.39
2017-12-26T05:15:16.214Z,20.32
2017-12-26T05:15:46.129Z,20.31
2017-12-26T05:16:14.165Z,20.31
2017-12-26T05:19:31.116Z,20.39
2017-12-26T05:26:06.080Z,20.43
2017-12-26T05:26:34.400Z,20.5
2017-12-26T05:27:32.693Z,20.47
2017-12-26T05:28:15.564Z,20.54
2017-12-26T05:28:44.417Z,20.41
2017-12-26T05:29:13.358Z,20.48
2017-12-26T05:29:42.815Z,20.47
2017-12-26T05:30:40.662Z,20.43
2017-12-26T05:31:10.307Z,20.5
2017-12-26T05:31:39.944Z,20.58
2017-12-26T05:32:09.327Z,20.58
2017-12-26T05:32:52.796Z,20.61
2017-12-26T05:33:20.748Z,20.54
2017-12-26T05:33:49.168Z,20.57
2017-12-26T05:36:03.242Z,20.57
2017-12-26T05:36:32.065Z,20.57
2017-12-26T05:37:00.472Z,20.51
2017-12-26T05:39:10.740Z,20.57
2017-12-26T05:39:40.700Z,20.55
2017-12-26T05:40:23.167Z,20.57
2017-12-26T05:41:48.674Z,20.61
2017-12-26T05:42:17.642Z,20.62
2017-12-26T05:42:46.558Z,20.66
2017-12-26T05:44:56.528Z,20.62
2017-12-26T05:45:24.950Z,20.62
2017-12-26T05:45:54.199Z,20.72
2017-12-26T05:47:49.125Z,20.64
2017-12-26T05:48:18.125Z,20.69
2017-12-26T05:49:03.243Z,20.67
2017-12-26T05:50:30.292Z,20.69
2017-12-26T05:51:56.977Z,20.64
2017-12-26T05:53:22.789Z,20.61
2017-12-26T05:54:21.419Z,20.73
2017-12-26T05:54:50.442Z,20.69
2017-12-26T05:55:19.439Z,20.66
2017-12-26T05:55:48.323Z,20.67
2017-12-26T05:56:17.882Z,20.69
2017-12-26T05:56:46.318Z,20.69
2017-12-26T05:57:21.431Z,20.67
2017-12-26T05:57:50.204Z,20.64
2017-12-26T05:58:33.529Z,20.69
2017-12-26T05:59:02.528Z,20.72
2017-12-26T05:59:30.821Z,20.69
2017-12-26T06:00:15.201Z,20.76
2017-12-26T06:00:43.960Z,20.69
2017-12-26T06:01:13.211Z,20.72
2017-12-26T06:01:41.115Z,20.77
2017-12-26T06:02:10.129Z,20.69
2017-12-26T06:02:38.773Z,20.64
2017-12-26T06:03:50.263Z,20.7
2017-12-26T06:04:19.116Z,20.73
2017-12-26T06:06:42.636Z,20.72
2017-12-26T06:07:14.496Z,20.69
2017-12-26T06:07:42.530Z,20.74
2017-12-26T06:08:12.814Z,20.73
2017-12-26T06:09:25.436Z,20.73
2017-12-26T06:09:55.219Z,20.73
2017-12-26T06:10:25.190Z,20.79
2017-12-26T06:12:05.672Z,20.73
2017-12-26T06:12:34.088Z,20.72
2017-12-26T06:13:02.321Z,20.69
2017-12-26T06:13:31.546Z,20.8
2017-12-26T06:14:46.987Z,20.85
2017-12-26T06:15:44.837Z,20.85
2017-12-26T06:16:13.271Z,20.89
2017-12-26T06:16:42.097Z,20.88
2017-12-26T06:18:53.076Z,20.84
2017-12-26T06:19:22.021Z,20.82
2017-12-26T06:19:50.475Z,20.92
2017-12-26T06:20:18.493Z,20.8
2017-12-26T06:20:47.680Z,20.74
2017-12-26T06:21:17.114Z,20.69
2017-12-26T06:21:45.024Z,20.72
2017-12-26T06:22:15.044Z,20.73
2017-12-26T06:22:43.850Z,20.7
2017-12-26T06:23:12.673Z,20.73
2017-12-26T06:23:41.128Z,20.7
2017-12-26T06:24:09.559Z,20.73
2017-12-26T06:26:33.165Z,20.7
2017-12-26T06:27:01.176Z,20.66
2017-12-26T06:27:30.375Z,20.69
2017-12-26T06:27:59.552Z,20.66
2017-12-26T06:28:28.539Z,20.69
2017-12-26T06:29:22.889Z,20.64
2017-12-26T06:30:08.662Z,20.69
2017-12-26T06:30:36.875Z,20.66
2017-12-26T06:32:32.391Z,20.69
2017-12-26T06:33:13.280Z,20.66
2017-12-26T06:33:42.656Z,20.69
2017-12-26T06:34:25.685Z,20.64
2017-12-26T06:34:59.288Z,20.73
2017-12-26T06:35:27.732Z,20.69
2017-12-26T06:35:56.206Z,20.64
2017-12-26T06:38:05.273Z,20.62
2017-12-26T06:40:43.776Z,20.69
2017-12-26T06:41:13.008Z,20.67
2017-12-26T06:44:51.850Z,20.59
2017-12-26T06:45:20.091Z,20.58
2017-12-26T06:46:05.053Z,20.55
2017-12-26T06:46:33.858Z,20.59
2017-12-26T06:47:17.733Z,20.54
2017-12-26T06:47:47.335Z,20.52
2017-12-26T06:50:55.534Z,20.42
2017-12-26T06:52:23.380Z,20.52
2017-12-26T06:52:52.793Z,20.54
2017-12-26T06:53:50.655Z,20.57
2017-12-26T06:54:19.892Z,20.5
2017-12-26T06:54:47.811Z,20.54
2017-12-26T06:55:15.856Z,20.39
2017-12-26T06:55:44.307Z,20.54
2017-12-26T06:56:12.335Z,20.57
2017-12-26T06:56:41.814Z,20.54
2017-12-26T06:57:10.250Z,20.54
2017-12-26T06:57:40.286Z,20.51
2017-12-26T06:58:08.289Z,20.51
2017-12-26T06:58:38.722Z,20.54
2017-12-26T06:59:06.720Z,20.55
2017-12-26T06:59:34.749Z,20.57
2017-12-26T07:00:03.896Z,20.58
2017-12-26T07:00:46.803Z,20.58
2017-12-26T07:01:15.469Z,20.54
2017-12-26T07:01:43.879Z,20.52
2017-12-26T07:02:11.928Z,20.59
2017-12-26T07:02:42.119Z,20.59
2017-12-26T07:04:22.509Z,20.55
2017-12-26T07:04:52.144Z,20.5
2017-12-26T07:05:20.175Z,20.5
2017-12-26T07:05:48.740Z,20.5
2017-12-26T07:06:17.408Z,20.43
2017-12-26T07:07:00.834Z,20.55
2017-12-26T07:07:29.498Z,20.54
2017-12-26T07:07:58.210Z,20.43
2017-12-26T07:08:28.305Z,20.47
2017-12-26T07:08:58.178Z,20.54
2017-12-26T07:09:27.885Z,20.5
2017-12-26T07:11:10.274Z,20.51
2017-12-26T07:11:39.317Z,20.55
2017-12-26T07:12:14.098Z,20.48
2017-12-26T07:12:42.553Z,20.43
2017-12-26T07:13:11.873Z,20.48
2017-12-26T07:14:38.978Z,20.52
2017-12-26T07:15:36.452Z,20.41
2017-12-26T07:16:05.675Z,20.42
2017-12-26T07:17:34.269Z,20.54
2017-12-26T07:18:47.297Z,20.42
2017-12-26T07:19:44.709Z,20.47
2017-12-26T07:20:42.334Z,20.42
2017-12-26T07:21:23.605Z,20.54
2017-12-26T07:21:51.953Z,20.41
2017-12-26T07:22:36.695Z,20.55
2017-12-26T07:23:05.807Z,20.39
2017-12-26T07:23:34.674Z,20.48
2017-12-26T07:24:03.096Z,20.47
2017-12-26T07:24:32.056Z,20.47
2017-12-26T07:26:01.016Z,20.47
2017-12-26T07:27:27.055Z,20.41
2017-12-26T07:27:57.673Z,20.5
2017-12-26T07:28:56.804Z,20.48
2017-12-26T07:29:26.702Z,20.41
2017-12-26T07:29:55.843Z,20.51
2017-12-26T07:30:25.112Z,20.54
2017-12-26T07:30:53.769Z,20.43
2017-12-26T07:31:51.601Z,20.48
2017-12-26T07:32:20.484Z,20.52
2017-12-26T07:34:26.609Z,20.57
2017-12-26T07:35:40.415Z,20.41
2017-12-26T07:36:23.849Z,20.54
2017-12-26T07:37:37.270Z,20.58
2017-12-26T07:38:26.927Z,20.57
2017-12-26T07:38:54.849Z,20.59
2017-12-26T07:39:24.879Z,20.58
2017-12-26T07:40:53.333Z,20.59
2017-12-26T07:43:03.145Z,20.62
2017-12-26T07:44:15.089Z,20.55
2017-12-26T07:44:43.519Z,20.52
2017-12-26T07:45:26.053Z,20.54
2017-12-26T07:48:50.011Z,20.55
2017-12-26T07:49:47.863Z,20.48
2017-12-26T07:50:16.903Z,20.52
2017-12-26T07:51:16.576Z,20.51
2017-12-26T07:51:59.037Z,20.52
2017-12-26T07:52:57.731Z,20.57
2017-12-26T07:53:55.180Z,20.52
2017-12-26T07:54:23.619Z,20.55
2017-12-26T07:57:01.866Z,20.5
2017-12-26T07:58:13.150Z,20.48
2017-12-26T07:59:40.431Z,20.51
2017-12-26T08:00:10.100Z,20.43
2017-12-26T08:01:07.199Z,20.33
2017-12-26T08:03:19.183Z,20.32
2017-12-26T08:05:45.801Z,20.39
2017-12-26T08:06:15.449Z,20.33
2017-12-26T08:06:45.191Z,20.38
2017-12-26T08:07:28.196Z,20.39
2017-12-26T08:07:56.646Z,20.39
2017-12-26T08:08:40.820Z,20.39
2017-12-26T08:09:39.368Z,20.39
2017-12-26T08:10:22.099Z,20.36
2017-12-26T08:10:52.142Z,20.35
2017-12-26T08:11:35.462Z,20.39
2017-12-26T08:12:32.705Z,20.41
2017-12-26T08:15:42.860Z,20.52
2017-12-26T08:16:41.338Z,20.42
2017-12-26T08:17:38.590Z,20.35
2017-12-26T08:18:21.443Z,20.31
2017-12-26T08:18:50.578Z,20.39
2017-12-26T08:19:34.195Z,20.31
2017-12-26T08:21:44.288Z,20.38
2017-12-26T08:22:27.261Z,20.32
2017-12-26T08:23:10.962Z,20.35
2017-12-26T08:24:37.876Z,20.35
2017-12-26T08:25:06.309Z,20.39
2017-12-26T08:25:34.778Z,20.35
2017-12-26T08:26:03.222Z,20.33
2017-12-26T08:26:31.948Z,20.38
2017-12-26T08:27:00.457Z,20.35
2017-12-26T08:28:41.769Z,20.38
2017-12-26T08:30:09.386Z,20.47
2017-12-26T08:30:52.329Z,20.35
2017-12-26T08:31:38.045Z,20.33
2017-12-26T08:34:03.170Z,20.58
2017-12-26T08:34:47.766Z,20.58
2017-12-26T08:35:44.853Z,20.55
2017-12-26T08:36:14.107Z,20.57
2017-12-26T08:36:57.067Z,20.64
2017-12-26T08:37:40.234Z,20.61
2017-12-26T08:38:10.665Z,20.69
2017-12-26T08:41:33.855Z,20.76
2017-12-26T08:42:48.489Z,20.77
2017-12-26T08:43:32.699Z,20.73
2017-12-26T08:44:15.961Z,20.72
2017-12-26T08:46:24.583Z,20.76
2017-12-26T08:47:07.128Z,20.84
2017-12-26T08:47:50.426Z,20.84
2017-12-26T08:48:20.277Z,20.82
2017-12-26T08:48:49.125Z,20.82
2017-12-26T08:49:17.135Z,20.84
2017-12-26T08:50:01.420Z,20.98
2017-12-26T08:50:30.617Z,20.88
2017-12-26T08:50:58.623Z,20.95
2017-12-26T08:51:53.416Z,20.99
2017-12-26T08:52:21.793Z,20.85
2017-12-26T08:52:52.134Z,20.95
2017-12-26T08:53:22.039Z,20.89
2017-12-26T08:54:48.959Z,20.92
2017-12-26T08:56:58.597Z,20.92
2017-12-26T08:58:25.603Z,20.95
2017-12-26T08:59:22.579Z,20.94
2017-12-26T08:59:50.597Z,20.99
2017-12-26T09:00:18.599Z,20.98
2017-12-26T09:00:47.409Z,20.99
2017-12-26T09:01:16.228Z,21.03
2017-12-26T09:03:11.942Z,20.99
2017-12-26T09:03:56.278Z,20.99
2017-12-26T09:04:53.359Z,20.95
2017-12-26T09:05:24.962Z,20.98
2017-12-26T09:06:22.357Z,20.97
2017-12-26T09:07:05.464Z,20.97
2017-12-26T09:07:33.900Z,21.04
2017-12-26T09:08:02.460Z,21.07
2017-12-26T09:08:30.419Z,21.04
2017-12-26T09:08:58.860Z,21.07
2017-12-26T09:09:26.881Z,21.09
2017-12-26T09:09:56.450Z,21.14
2017-12-26T09:10:27.034Z,21.21
2017-12-26T09:12:08.201Z,21.25
2017-12-26T09:12:37.439Z,21.19
2017-12-26T09:13:21.292Z,21.17
2017-12-26T09:15:01.595Z,21.24
2017-12-26T09:15:35.269Z,21.28
2017-12-26T09:16:19.441Z,21.25
2017-12-26T09:17:06.002Z,21.25
2017-12-26T09:18:32.073Z,21.31
2017-12-26T09:19:15.039Z,21.22
2017-12-26T09:19:43.921Z,21.31
2017-12-26T09:21:10.286Z,21.28
2017-12-26T09:21:53.750Z,21.28
2017-12-26T09:23:24.909Z,21.29
2017-12-26T09:23:53.768Z,21.32
2017-12-26T09:24:37.768Z,21.29
2017-12-26T09:25:05.815Z,21.35
2017-12-26T09:25:49.844Z,21.32